createdAt,value
2019-03-22T00:02:03.530Z,9.10
2019-03-22T00:04:33.545Z,9.10
2019-03-22T00:07:03.652Z,9.10
2019-03-22T00:09:34.585Z,9.20
2019-03-22T00:12:04.570Z,9.20
2019-03-22T00:14:36.873Z,9.20
2019-03-22T00:17:06.462Z,9.30
2019-03-22T00:19:36.649Z,9.00
2019-03-22T00:22:06.796Z,9.40
2019-03-22T00:24:36.932Z,8.90
2019-03-22T00:32:10.091Z,9.20
2019-03-22T00:34:40.210Z,9.10
2019-03-22T00:37:10.366Z,9.10
2019-03-22T00:39:40.549Z,9.20
2019-03-22T00:42:10.602Z,9.10
2019-03-22T00:44:40.609Z,9.10
2019-03-22T00:47:10.665Z,9.10
2019-03-22T00:49:41.072Z,9.00
2019-03-22T00:52:11.151Z,8.90
2019-03-22T00:54:41.311Z,9.00
2019-03-22T00:57:11.531Z,9.00
2019-03-22T00:59:41.737Z,9.10
2019-03-22T01:04:41.701Z,7.80
2019-03-22T01:07:12.010Z,9.10
2019-03-22T01:09:43.087Z,9.40
2019-03-22T01:12:13.104Z,9.20
2019-03-22T01:14:43.183Z,9.20
2019-03-22T01:17:13.137Z,9.20
2019-03-22T01:19:43.125Z,9.00
2019-03-22T01:22:13.638Z,9.00
2019-03-22T01:24:46.018Z,8.90
2019-03-22T01:27:16.084Z,8.90
2019-03-22T01:29:46.121Z,8.90
2019-03-22T01:32:16.398Z,8.90
2019-03-22T01:34:46.483Z,9.00
2019-03-22T01:37:16.436Z,9.00
2019-03-22T01:39:47.446Z,9.10
2019-03-22T01:42:19.038Z,9.00
2019-03-22T01:44:49.158Z,9.00
2019-03-22T01:47:19.272Z,9.00
2019-03-22T01:49:49.226Z,9.00
2019-03-22T01:52:19.384Z,9.00
2019-03-22T01:54:53.695Z,9.00
2019-03-22T01:57:23.917Z,8.90
2019-03-22T01:59:53.910Z,9.00
2019-03-22T02:02:23.875Z,8.90
2019-03-22T02:04:54.023Z,8.50
2019-03-22T02:07:24.097Z,8.90
2019-03-22T02:09:54.843Z,8.90
2019-03-22T02:12:24.979Z,8.90
2019-03-22T02:14:54.928Z,8.90
2019-03-22T02:17:24.886Z,9.00
2019-03-22T02:19:55.024Z,9.00
2019-03-22T02:22:25.020Z,8.90
2019-03-22T02:24:55.105Z,9.00
2019-03-22T02:27:25.058Z,8.90
2019-03-22T02:29:55.035Z,9.00
2019-03-22T02:32:25.379Z,9.00
2019-03-22T02:34:55.401Z,9.00
2019-03-22T02:37:25.510Z,9.00
2019-03-22T02:39:55.556Z,9.00
2019-03-22T02:42:26.007Z,9.10
2019-03-22T02:45:02.472Z,9.10
2019-03-22T02:47:33.064Z,9.10
2019-03-22T02:50:17.152Z,9.10
2019-03-22T02:52:37.004Z,9.10
2019-03-22T02:55:08.588Z,9.20
2019-03-22T02:57:38.665Z,9.20
2019-03-22T03:00:16.395Z,8.90
2019-03-22T03:07:46.477Z,9.40
2019-03-22T03:10:17.603Z,9.40
2019-03-22T03:12:47.994Z,9.50
2019-03-22T03:15:18.964Z,8.90
2019-03-22T03:17:49.057Z,9.00
2019-03-22T03:22:49.473Z,9.50
2019-03-22T03:25:19.707Z,9.30
2019-03-22T03:30:20.616Z,9.20
2019-03-22T03:32:51.865Z,9.20
2019-03-22T03:35:21.940Z,9.10
2019-03-22T03:37:51.970Z,9.40
2019-03-22T03:40:21.996Z,9.40
2019-03-22T03:42:52.098Z,9.20
2019-03-22T03:45:38.019Z,9.30
2019-03-22T03:48:11.589Z,9.30
2019-03-22T03:50:41.613Z,9.30
2019-03-22T03:53:11.775Z,9.40
2019-03-22T03:55:41.730Z,9.40
2019-03-22T03:58:11.867Z,9.40
2019-03-22T04:00:41.872Z,9.30
2019-03-22T04:03:12.092Z,9.40
2019-03-22T04:05:42.097Z,9.40
2019-03-22T04:08:12.060Z,9.50
2019-03-22T04:10:43.059Z,9.30
2019-03-22T04:13:13.161Z,9.20
2019-03-22T04:15:43.374Z,9.20
2019-03-22T04:18:13.377Z,9.10
2019-03-22T04:20:43.581Z,9.20
2019-03-22T04:23:13.645Z,9.10
2019-03-22T04:25:43.770Z,9.20
2019-03-22T04:28:14.081Z,9.20
2019-03-22T04:30:44.321Z,9.10
2019-03-22T04:33:14.419Z,9.10
2019-03-22T04:35:44.370Z,9.00
2019-03-22T04:38:14.440Z,9.00
2019-03-22T04:40:45.766Z,9.00
2019-03-22T04:43:15.830Z,9.00
2019-03-22T04:45:47.215Z,9.00
2019-03-22T04:48:20.455Z,9.10
2019-03-22T04:50:52.741Z,9.10
2019-03-22T04:53:25.477Z,9.10
2019-03-22T04:55:59.559Z,9.10
2019-03-22T04:58:31.363Z,9.20
2019-03-22T05:01:01.879Z,9.20
2019-03-22T05:03:33.855Z,9.40
2019-03-22T05:06:06.021Z,9.40
2019-03-22T05:08:38.880Z,9.50
2019-03-22T05:11:15.551Z,9.50
2019-03-22T05:13:48.041Z,9.50
2019-03-22T05:16:20.829Z,9.40
2019-03-22T05:18:52.633Z,9.50
2019-03-22T05:21:25.672Z,9.60
2019-03-22T05:23:58.852Z,9.70
2019-03-22T05:26:30.878Z,9.70
2019-03-22T05:29:13.188Z,9.70
2019-03-22T05:32:05.080Z,9.70
2019-03-22T05:34:35.254Z,9.80
2019-03-22T05:37:05.687Z,9.70
2019-03-22T05:39:35.839Z,9.60
2019-03-22T05:42:05.824Z,9.60
2019-03-22T05:44:35.999Z,9.60
2019-03-22T05:47:06.067Z,9.70
2019-03-22T05:49:36.178Z,9.70
2019-03-22T05:52:06.223Z,9.70
2019-03-22T05:54:36.265Z,9.80
2019-03-22T05:57:13.409Z,9.70
2019-03-22T05:59:42.840Z,9.70
2019-03-22T06:02:10.008Z,9.80
2019-03-22T06:04:40.479Z,9.70
2019-03-22T06:07:10.412Z,9.70
2019-03-22T06:09:40.783Z,9.70
2019-03-22T06:12:11.704Z,9.80
2019-03-22T06:14:41.737Z,9.90
2019-03-22T06:17:11.785Z,10.00
2019-03-22T06:19:41.976Z,10.10
2019-03-22T06:22:12.122Z,10.10
2019-03-22T06:24:42.351Z,10.00
2019-03-22T06:27:12.704Z,10.00
2019-03-22T06:29:53.378Z,10.20
2019-03-22T06:32:14.469Z,10.30
2019-03-22T06:34:44.412Z,10.40
2019-03-22T06:37:14.396Z,10.40
2019-03-22T06:39:44.390Z,10.50
2019-03-22T06:42:14.525Z,10.60
2019-03-22T06:44:44.624Z,10.50
2019-03-22T06:47:14.599Z,10.50
2019-03-22T06:50:05.838Z,10.70
2019-03-22T06:52:35.925Z,10.80
2019-03-22T06:55:06.852Z,10.90
2019-03-22T06:57:37.115Z,10.90
2019-03-22T07:00:09.219Z,11.00
2019-03-22T07:02:39.425Z,10.90
2019-03-22T07:05:09.462Z,10.90
2019-03-22T07:07:40.538Z,11.10
2019-03-22T07:10:10.863Z,11.10
2019-03-22T07:12:41.672Z,11.10
2019-03-22T07:15:11.771Z,11.20
2019-03-22T07:17:41.706Z,11.10
2019-03-22T07:20:12.137Z,11.00
2019-03-22T07:22:42.135Z,11.00
2019-03-22T07:25:12.386Z,11.00
2019-03-22T07:27:42.483Z,10.90
2019-03-22T07:30:18.810Z,10.90
2019-03-22T07:32:47.247Z,10.90
2019-03-22T07:35:17.263Z,11.00
2019-03-22T07:37:47.192Z,11.30
2019-03-22T07:40:17.504Z,11.30
2019-03-22T07:42:47.620Z,11.20
2019-03-22T07:45:17.631Z,11.20
2019-03-22T07:47:47.581Z,11.20
2019-03-22T07:50:17.743Z,11.00
2019-03-22T07:52:47.686Z,11.00
2019-03-22T07:55:17.710Z,11.10
2019-03-22T07:57:47.795Z,11.20
2019-03-22T08:00:29.874Z,11.10
2019-03-22T08:02:49.540Z,11.10
2019-03-22T08:05:19.505Z,11.40
2019-03-22T08:07:49.643Z,11.40
2019-03-22T08:10:19.700Z,11.40
2019-03-22T08:12:50.667Z,11.30
2019-03-22T08:15:29.214Z,11.40
2019-03-22T08:17:59.855Z,11.30
2019-03-22T08:20:30.540Z,11.40
2019-03-22T08:23:00.533Z,11.40
2019-03-22T08:25:32.417Z,11.30
2019-03-22T08:28:02.421Z,11.30
2019-03-22T08:30:42.586Z,11.30
2019-03-22T08:33:04.694Z,11.40
2019-03-22T08:35:34.749Z,11.50
2019-03-22T08:38:05.023Z,11.60
2019-03-22T08:40:35.122Z,11.70
2019-03-22T08:43:05.453Z,11.70
2019-03-22T08:45:35.486Z,11.70
2019-03-22T08:48:05.670Z,11.60
2019-03-22T08:50:35.724Z,11.70
2019-03-22T08:53:05.897Z,11.70
2019-03-22T08:55:35.938Z,11.90
2019-03-22T08:58:05.938Z,12.00
2019-03-22T09:00:39.469Z,12.10
2019-03-22T09:03:07.715Z,12.40
2019-03-22T09:05:37.725Z,12.40
2019-03-22T09:08:07.748Z,12.60
2019-03-22T09:10:37.956Z,12.70
2019-03-22T09:13:09.025Z,12.80
2019-03-22T09:15:42.219Z,12.80
2019-03-22T09:18:10.879Z,12.80
2019-03-22T09:20:41.129Z,12.80
2019-03-22T09:23:11.187Z,12.80
2019-03-22T09:25:41.217Z,13.10
2019-03-22T09:28:11.195Z,13.40
2019-03-22T09:30:41.286Z,13.80
2019-03-22T09:33:13.421Z,13.70
2019-03-22T09:35:43.096Z,13.40
2019-03-22T09:38:13.573Z,13.60
2019-03-22T09:40:43.754Z,13.60
2019-03-22T09:43:13.723Z,13.50
2019-03-22T09:45:46.513Z,13.20
2019-03-22T09:48:16.537Z,13.50
2019-03-22T09:50:46.724Z,13.20
2019-03-22T09:53:17.335Z,13.10
2019-03-22T09:55:47.388Z,13.60
2019-03-22T09:58:17.499Z,13.80
2019-03-22T10:00:48.749Z,13.70
2019-03-22T10:03:19.033Z,13.30
2019-03-22T10:05:49.248Z,13.10
2019-03-22T10:08:19.314Z,13.50
2019-03-22T10:10:49.680Z,13.40
2019-03-22T10:13:20.752Z,13.30
2019-03-22T10:15:50.739Z,13.30
2019-03-22T10:18:20.817Z,13.30
2019-03-22T10:20:50.813Z,12.90
2019-03-22T10:23:22.401Z,13.00
2019-03-22T10:25:52.730Z,13.20
2019-03-22T10:28:22.839Z,13.20
2019-03-22T10:30:53.062Z,13.10
2019-03-22T10:33:23.366Z,12.50
2019-03-22T10:35:53.575Z,13.00
2019-03-22T10:38:31.134Z,13.20
2019-03-22T10:40:55.535Z,12.90
2019-03-22T10:43:25.958Z,13.10
2019-03-22T10:45:56.090Z,13.20
2019-03-22T10:48:26.267Z,12.80
2019-03-22T10:50:56.620Z,13.80
2019-03-22T10:53:27.035Z,13.60
2019-03-22T10:55:57.061Z,14.10
2019-03-22T10:58:27.023Z,14.60
2019-03-22T11:00:56.980Z,14.70
2019-03-22T11:03:27.583Z,14.80
2019-03-22T11:05:57.619Z,15.30
2019-03-22T11:08:28.583Z,15.60
2019-03-22T11:10:58.549Z,15.60
2019-03-22T11:13:29.608Z,15.70
2019-03-22T11:15:59.735Z,15.50
2019-03-22T11:18:37.423Z,15.50
2019-03-22T11:21:05.554Z,15.20
2019-03-22T11:23:33.327Z,14.30
2019-03-22T11:26:04.458Z,13.90
2019-03-22T11:28:34.622Z,13.80
2019-03-22T11:31:05.004Z,13.90
2019-03-22T11:33:35.447Z,14.00
2019-03-22T11:36:05.392Z,14.00
2019-03-22T11:38:35.542Z,13.80
2019-03-22T11:41:05.522Z,13.80
2019-03-22T11:43:35.538Z,13.80
2019-03-22T11:46:05.488Z,13.80
2019-03-22T11:48:35.470Z,13.90
2019-03-22T11:51:05.804Z,14.00
2019-03-22T11:53:37.452Z,13.90
2019-03-22T11:56:09.390Z,14.10
2019-03-22T11:58:39.317Z,14.00
2019-03-22T12:01:19.131Z,13.80
2019-03-22T12:03:41.423Z,13.60
2019-03-22T12:06:11.466Z,13.30
2019-03-22T12:08:41.647Z,13.10
2019-03-22T12:11:11.725Z,12.70
2019-03-22T12:13:42.683Z,12.60
2019-03-22T12:16:12.632Z,12.80
2019-03-22T12:18:42.768Z,13.00
2019-03-22T12:21:12.906Z,13.10
2019-03-22T12:23:43.107Z,13.20
2019-03-22T12:26:13.119Z,13.50
2019-03-22T12:28:43.120Z,13.20
2019-03-22T12:31:13.127Z,13.30
2019-03-22T12:33:43.165Z,13.20
2019-03-22T12:36:13.209Z,13.40
2019-03-22T12:38:43.322Z,13.00
2019-03-22T12:41:13.401Z,12.70
2019-03-22T12:43:43.342Z,12.70
2019-03-22T12:46:13.312Z,12.70
2019-03-22T12:48:43.296Z,12.80
2019-03-22T12:51:13.321Z,12.80
2019-03-22T12:53:43.280Z,12.80
2019-03-22T12:56:13.209Z,12.90
2019-03-22T12:58:43.215Z,13.00
2019-03-22T13:01:13.257Z,13.10
2019-03-22T13:03:43.288Z,13.00
2019-03-22T13:06:13.221Z,13.10
2019-03-22T13:08:43.233Z,12.90
2019-03-22T13:11:13.175Z,13.00
2019-03-22T13:13:44.770Z,12.90
2019-03-22T13:16:14.750Z,12.70
2019-03-22T13:18:50.194Z,12.70
2019-03-22T13:21:16.574Z,12.70
2019-03-22T13:23:47.615Z,12.60
2019-03-22T13:26:17.567Z,12.80
2019-03-22T13:28:47.508Z,12.80
2019-03-22T13:31:17.562Z,12.90
2019-03-22T13:33:47.516Z,12.90
2019-03-22T13:36:17.452Z,12.90
2019-03-22T13:38:47.448Z,12.90
2019-03-22T13:41:17.684Z,12.90
2019-03-22T13:43:47.640Z,12.80
2019-03-22T13:46:17.746Z,12.80
2019-03-22T13:48:47.710Z,12.70
2019-03-22T13:51:17.785Z,12.80
2019-03-22T13:53:48.115Z,12.80
2019-03-22T13:56:18.032Z,12.70
2019-03-22T13:58:47.971Z,12.60
2019-03-22T14:01:17.980Z,12.60
2019-03-22T14:03:48.003Z,12.60
2019-03-22T14:06:18.210Z,12.50
2019-03-22T14:08:48.189Z,12.50
2019-03-22T14:11:18.195Z,12.40
2019-03-22T14:13:48.949Z,12.40
2019-03-22T14:16:18.903Z,12.40
2019-03-22T14:18:51.929Z,12.20
2019-03-22T14:21:21.915Z,12.20
2019-03-22T14:23:52.038Z,12.20
2019-03-22T14:26:21.969Z,12.20
2019-03-22T14:28:51.908Z,12.30
2019-03-22T14:31:23.527Z,12.30
2019-03-22T14:33:53.457Z,12.30
2019-03-22T14:36:23.384Z,12.20
2019-03-22T14:38:53.351Z,12.20
2019-03-22T14:41:23.372Z,12.20
2019-03-22T14:43:53.365Z,12.20
2019-03-22T14:46:23.539Z,12.20
2019-03-22T14:48:53.700Z,12.20
2019-03-22T14:51:23.615Z,12.10
2019-03-22T14:53:53.572Z,12.20
2019-03-22T14:56:23.505Z,12.10
2019-03-22T14:58:53.455Z,12.10
2019-03-22T15:01:23.420Z,12.00
2019-03-22T15:03:53.559Z,11.90
2019-03-22T15:06:23.578Z,11.90
2019-03-22T15:08:53.520Z,11.90
2019-03-22T15:11:23.574Z,11.90
2019-03-22T15:13:55.285Z,11.90
2019-03-22T15:16:28.323Z,11.90
2019-03-22T15:19:05.650Z,11.80
2019-03-22T15:21:46.459Z,11.90
2019-03-22T15:24:36.332Z,11.90
2019-03-22T15:27:10.594Z,11.90
2019-03-22T15:29:50.228Z,12.00
2019-03-22T15:32:35.486Z,12.00
2019-03-22T15:38:14.451Z,12.00
2019-03-22T15:40:44.453Z,12.40
2019-03-22T15:43:14.486Z,12.00
2019-03-22T15:45:44.516Z,12.00
2019-03-22T15:48:14.548Z,12.00
2019-03-22T15:50:44.555Z,12.00
2019-03-22T15:53:14.821Z,11.90
2019-03-22T15:55:44.791Z,12.00
2019-03-22T15:58:14.752Z,12.00
2019-03-22T16:00:44.760Z,12.00
2019-03-22T16:03:14.718Z,12.00
2019-03-22T16:05:44.811Z,12.00
2019-03-22T16:08:14.768Z,12.00
2019-03-22T16:10:44.772Z,12.00
2019-03-22T16:13:14.835Z,12.00
2019-03-22T16:18:15.408Z,12.00
2019-03-22T16:20:45.390Z,12.00
2019-03-22T16:23:15.339Z,11.90
2019-03-22T16:25:45.314Z,12.00
2019-03-22T16:28:15.640Z,12.00
2019-03-22T16:30:45.605Z,12.00
2019-03-22T16:33:15.857Z,11.90
2019-03-22T16:35:45.855Z,11.60
2019-03-22T16:38:15.991Z,12.00
2019-03-22T16:40:46.102Z,12.20
2019-03-22T16:43:16.057Z,12.20
2019-03-22T16:45:46.235Z,12.20
2019-03-22T16:48:16.208Z,12.10
2019-03-22T16:50:46.148Z,12.10
2019-03-22T16:53:16.099Z,12.00
2019-03-22T16:55:46.070Z,11.60
2019-03-22T17:00:45.619Z,11.60
2019-03-22T17:03:15.662Z,11.90
2019-03-22T17:05:45.657Z,11.80
2019-03-22T17:08:15.648Z,11.70
2019-03-22T17:13:15.089Z,12.50
2019-03-22T17:15:46.196Z,11.50
2019-03-22T17:18:17.298Z,12.00
2019-03-22T17:20:47.273Z,11.70
2019-03-22T17:23:17.292Z,11.70
2019-03-22T17:25:47.326Z,11.50
2019-03-22T17:28:17.275Z,11.70
2019-03-22T17:30:47.238Z,11.50
2019-03-22T17:33:17.283Z,11.60
2019-03-22T17:35:47.514Z,11.70
2019-03-22T17:38:17.536Z,11.10
2019-03-22T17:40:47.834Z,11.50
2019-03-22T17:43:17.987Z,11.60
2019-03-22T17:45:47.995Z,11.60
2019-03-22T17:48:18.522Z,11.60
2019-03-22T17:50:48.735Z,11.60
2019-03-22T17:53:18.834Z,11.60
2019-03-22T17:55:49.404Z,11.60
2019-03-22T17:58:19.462Z,11.50
2019-03-22T18:00:49.642Z,11.50
2019-03-22T18:03:19.726Z,11.40
2019-03-22T18:05:49.671Z,11.40
2019-03-22T18:08:19.628Z,11.40
2019-03-22T18:10:49.611Z,11.40
2019-03-22T18:13:19.645Z,11.40
2019-03-22T18:15:49.644Z,11.40
2019-03-22T18:18:21.807Z,11.30
2019-03-22T18:20:51.824Z,11.30
2019-03-22T18:23:22.738Z,11.30
2019-03-22T18:25:52.840Z,11.30
2019-03-22T18:28:23.017Z,11.30
2019-03-22T18:30:53.013Z,11.30
2019-03-22T18:33:23.036Z,11.30
2019-03-22T18:35:53.155Z,11.30
2019-03-22T18:38:23.194Z,11.30
2019-03-22T18:40:53.202Z,11.30
2019-03-22T18:43:23.212Z,11.30
2019-03-22T18:45:53.229Z,11.30
2019-03-22T18:48:23.320Z,11.30
2019-03-22T18:50:56.891Z,11.30
2019-03-22T18:53:24.956Z,11.30
2019-03-22T18:55:54.916Z,11.30
2019-03-22T18:58:24.864Z,11.40
2019-03-22T19:00:54.879Z,11.30
2019-03-22T19:03:24.823Z,11.30
2019-03-22T19:05:54.849Z,11.20
2019-03-22T19:08:25.380Z,11.20
2019-03-22T19:10:55.488Z,11.20
2019-03-22T19:13:30.617Z,11.20
2019-03-22T19:15:57.582Z,11.20
2019-03-22T19:18:28.678Z,11.10
2019-03-22T19:20:58.775Z,11.10
2019-03-22T19:23:28.823Z,11.00
2019-03-22T19:25:58.904Z,11.10
2019-03-22T19:28:30.180Z,11.00
2019-03-22T19:31:00.165Z,11.00
2019-03-22T19:33:30.145Z,10.90
2019-03-22T19:36:00.086Z,10.90
2019-03-22T19:38:30.218Z,10.80
2019-03-22T19:41:00.256Z,10.80
2019-03-22T19:43:31.195Z,10.80
2019-03-22T19:46:01.204Z,10.70
2019-03-22T19:48:31.303Z,10.70
2019-03-22T19:51:01.304Z,10.70
2019-03-22T19:53:31.292Z,10.70
2019-03-22T19:56:01.590Z,10.70
2019-03-22T19:58:31.616Z,10.70
2019-03-22T20:01:01.729Z,10.60
2019-03-22T20:03:35.774Z,10.60
2019-03-22T20:06:05.770Z,10.50
2019-03-22T20:08:36.010Z,10.60
2019-03-22T20:11:06.115Z,10.40
2019-03-22T20:13:36.098Z,10.40
2019-03-22T20:16:06.231Z,10.30
2019-03-22T20:18:37.231Z,10.30
2019-03-22T20:21:07.233Z,10.30
2019-03-22T20:23:37.181Z,10.20
2019-03-22T20:26:07.462Z,10.10
2019-03-22T20:28:39.602Z,10.10
2019-03-22T20:31:09.962Z,10.10
2019-03-22T20:33:39.990Z,10.00
2019-03-22T20:36:10.004Z,10.00
2019-03-22T20:38:39.991Z,10.00
2019-03-22T20:41:10.009Z,9.90
2019-03-22T20:43:39.975Z,9.90
2019-03-22T20:46:10.043Z,9.90
2019-03-22T20:48:40.042Z,9.90
2019-03-22T20:51:10.062Z,9.90
2019-03-22T20:53:40.110Z,9.90
2019-03-22T20:56:11.419Z,9.80
2019-03-22T20:58:41.388Z,9.70
2019-03-22T21:01:11.439Z,9.70
2019-03-22T21:03:41.927Z,9.60
2019-03-22T21:06:12.174Z,9.50
2019-03-22T21:08:42.381Z,9.40
2019-03-22T21:11:12.537Z,9.30
2019-03-22T21:13:45.540Z,9.20
2019-03-22T21:16:16.317Z,9.10
2019-03-22T21:18:46.320Z,9.00
2019-03-22T21:21:16.517Z,8.90
2019-03-22T21:23:46.566Z,8.80
2019-03-22T21:26:18.758Z,8.70
2019-03-22T21:28:48.755Z,8.60
2019-03-22T21:31:19.038Z,8.60
2019-03-22T21:33:49.120Z,8.50
2019-03-22T21:36:20.489Z,8.40
2019-03-22T21:38:52.170Z,8.30
2019-03-22T21:41:22.400Z,8.20
2019-03-22T21:43:52.477Z,8.20
2019-03-22T21:46:22.470Z,8.10
2019-03-22T21:48:52.675Z,8.00
2019-03-22T21:51:23.004Z,8.00
2019-03-22T21:53:53.141Z,7.90
2019-03-22T21:56:23.155Z,7.80
2019-03-22T21:58:53.168Z,7.80
2019-03-22T22:01:23.418Z,7.80
2019-03-22T22:03:54.206Z,7.70
2019-03-22T22:06:24.271Z,7.70
2019-03-22T22:08:57.179Z,7.70
2019-03-22T22:11:27.235Z,7.60
2019-03-22T22:13:57.256Z,7.60
2019-03-22T22:16:27.276Z,7.50
2019-03-22T22:18:57.796Z,7.50
2019-03-22T22:21:27.837Z,7.40
2019-03-22T22:23:57.837Z,7.30
2019-03-22T22:26:27.818Z,7.20
2019-03-22T22:28:57.899Z,7.10
2019-03-22T22:31:29.247Z,7.10
2019-03-22T22:33:59.304Z,7.00
2019-03-22T22:36:30.468Z,6.90
2019-03-22T22:39:00.505Z,6.90
2019-03-22T22:41:32.370Z,6.90
2019-03-22T22:44:02.411Z,6.80
2019-03-22T22:46:32.447Z,6.70
2019-03-22T22:49:02.421Z,6.70
2019-03-22T22:51:32.361Z,6.60
2019-03-22T22:54:02.496Z,6.60
2019-03-22T22:56:32.507Z,6.50
2019-03-22T22:59:02.457Z,6.50
2019-03-22T23:01:33.463Z,6.40
2019-03-22T23:04:03.663Z,6.30
2019-03-22T23:06:33.803Z,6.20
2019-03-22T23:09:06.315Z,6.00
2019-03-22T23:11:37.960Z,5.90
2019-03-22T23:14:07.903Z,5.80
2019-03-22T23:16:37.910Z,5.80
2019-03-22T23:19:07.951Z,5.60
2019-03-22T23:21:38.186Z,5.50
2019-03-22T23:24:08.162Z,5.30
2019-03-22T23:26:38.178Z,5.20
2019-03-22T23:29:09.357Z,5.10
2019-03-22T23:31:39.453Z,5.00
2019-03-22T23:34:09.469Z,4.80
2019-03-22T23:36:40.384Z,4.80
2019-03-22T23:39:10.586Z,4.80
2019-03-22T23:41:40.651Z,4.70
2019-03-22T23:44:10.652Z,4.70
2019-03-22T23:46:40.637Z,4.60
2019-03-22T23:49:10.605Z,4.60
2019-03-22T23:51:41.384Z,4.50
2019-03-22T23:54:12.020Z,4.50
2019-03-22T23:56:42.057Z,4.50
2019-03-22T23:59:12.045Z,4.40
